Time;durP1;ratioP1;P1;durP2;ratioP2;P2;SDS_P1;SDS_P2;PMS_P1;PMS_P2;Temp;Humidity;BMP_temperature;BMP_pressure;BME280_temperature;BME280_humidity;BME280_pressure;Samples;Min_cycle;Max_cycle;Signal;HPM_P1;HPM_P2
2022/10/24 00:01:31;;;;;;;6.78;1.98;;;14.00;99.90;;;;;;5028222;28;20399;-59
2022/10/24 00:03:57;;;;;;;5.75;1.88;;;14.00;99.90;;;;;;5023091;28;20430;-59
2022/10/24 00:06:23;;;;;;;9.02;1.83;;;14.10;99.90;;;;;;5021736;28;20330;-59
2022/10/24 00:08:49;;;;;;;5.97;1.95;;;13.90;99.90;;;;;;5024810;28;20075;-59
2022/10/24 00:11:21;;;;;;;9.32;2.33;;;14.00;99.90;;;;;;5026387;28;20037;-59
2022/10/24 00:13:48;;;;;;;11.98;2.03;;;16.40;99.90;;;;;;5026715;28;20037;-59
2022/10/24 00:16:13;;;;;;;8.73;1.60;;;15.00;99.90;;;;;;5018971;28;20621;-59
2022/10/24 00:18:39;;;;;;;6.45;2.10;;;14.20;99.90;;;;;;5022283;28;20052;-59
2022/10/24 00:21:06;;;;;;;9.20;2.30;;;14.10;99.90;;;;;;5025793;28;20041;-59
2022/10/24 00:23:32;;;;;;;9.27;2.08;;;14.20;99.90;;;;;;5023907;28;20059;-60
2022/10/24 00:26:00;;;;;;;6.95;2.30;;;14.00;99.90;;;;;;5024424;28;20049;-59
2022/10/24 00:28:27;;;;;;;8.45;1.75;;;14.10;99.90;;;;;;5026314;28;20037;-59
2022/10/24 00:30:53;;;;;;;10.98;2.03;;;14.00;99.90;;;;;;5025438;28;20145;-60
2022/10/24 00:33:19;;;;;;;6.03;1.85;;;14.00;99.90;;;;;;5024127;28;20071;-59
2022/10/24 00:35:44;;;;;;;6.57;2.03;;;14.10;99.90;;;;;;5029472;28;20144;-59
2022/10/24 00:38:10;;;;;;;8.00;1.90;;;14.00;99.90;;;;;;5027077;28;20040;-59
2022/10/24 00:40:36;;;;;;;9.65;2.05;;;14.10;99.90;;;;;;5024030;28;20052;-59
2022/10/24 00:43:02;;;;;;;9.80;2.15;;;14.20;99.90;;;;;;5027686;28;20038;-59
2022/10/24 00:45:46;;;;;;;8.05;2.67;;;14.20;99.90;;;;;;5024428;28;20029;-59
2022/10/24 00:48:49;;;;;;;4.47;1.60;;;14.10;99.90;;;;;;5025934;28;20535;-59
2022/10/24 00:51:23;;;;;;;7.72;2.08;;;14.20;99.90;;;;;;5024405;28;20180;-59
2022/10/24 00:54:01;;;;;;;8.07;1.73;;;14.20;99.90;;;;;;5025089;28;20052;-59
2022/10/24 00:56:31;;;;;;;8.90;2.00;;;14.20;99.90;;;;;;5020914;28;20470;-60
2022/10/24 00:59:00;;;;;;;10.90;1.80;;;14.30;99.90;;;;;;5022751;28;20041;-59
2022/10/24 01:01:26;;;;;;;7.95;1.80;;;14.20;99.90;;;;;;5024940;28;20041;-59
2022/10/24 01:03:52;;;;;;;5.82;1.77;;;14.10;99.90;;;;;;5025814;28;20481;-59
2022/10/24 01:06:29;;;;;;;6.43;1.77;;;14.20;99.90;;;;;;5027760;28;20063;-59
2022/10/24 01:09:13;;;;;;;7.13;1.73;;;14.00;99.90;;;;;;5025755;28;20037;-59
2022/10/24 01:12:12;;;;;;;7.53;1.70;;;14.20;99.90;;;;;;5027565;28;20048;-59
2022/10/24 01:14:49;;;;;;;7.07;1.70;;;13.90;99.90;;;;;;5024851;28;20037;-60
2022/10/24 01:17:43;;;;;;;8.70;1.90;;;13.80;99.90;;;;;;5023246;28;20173;-59
2022/10/24 01:20:21;;;;;;;8.25;2.33;;;14.00;99.90;;;;;;5023611;28;20044;-60
2022/10/24 01:23:01;;;;;;;7.88;2.10;;;13.90;99.90;;;;;;5021819;28;20041;-59
2022/10/24 01:25:48;;;;;;;6.43;2.00;;;14.00;99.90;;;;;;5026436;28;20033;-59
2022/10/24 01:28:23;;;;;;;10.52;1.60;;;13.90;99.90;;;;;;5020596;28;20056;-59
2022/10/24 01:30:56;;;;;;;9.23;1.80;;;13.90;99.90;;;;;;5023834;28;20041;-60
2022/10/24 01:33:34;;;;;;;6.68;1.55;;;13.90;99.90;;;;;;5022185;28;20480;-59
2022/10/24 01:36:08;;;;;;;10.02;1.80;;;14.10;99.90;;;;;;5027615;28;20041;-59
2022/10/24 01:38:46;;;;;;;4.35;1.50;;;14.20;99.90;;;;;;5023300;28;20052;-58
2022/10/24 01:41:16;;;;;;;4.40;1.85;;;14.00;99.90;;;;;;5021871;28;20037;-59
2022/10/24 01:43:54;;;;;;;6.72;2.25;;;14.10;99.90;;;;;;5023648;28;20125;-58
2022/10/24 01:46:27;;;;;;;9.40;2.13;;;14.20;99.90;;;;;;5026336;28;20533;-59
2022/10/24 01:49:09;;;;;;;4.63;1.77;;;14.20;99.90;;;;;;5022181;28;20060;-59
2022/10/24 01:51:35;;;;;;;8.90;2.15;;;14.30;99.90;;;;;;5023490;28;20041;-59
2022/10/24 01:54:03;;;;;;;9.77;1.98;;;14.30;99.90;;;;;;5024271;28;20037;-59
2022/10/24 01:56:28;;;;;;;9.02;1.92;;;14.40;99.90;;;;;;5023655;28;20056;-59
2022/10/24 01:59:05;;;;;;;9.98;2.20;;;14.50;99.90;;;;;;5021655;28;20403;-60
2022/10/24 02:01:31;;;;;;;7.50;1.80;;;14.60;99.90;;;;;;5023085;28;20767;-59
2022/10/24 02:04:02;;;;;;;6.03;2.00;;;14.40;99.90;;;;;;5024574;28;20064;-59
2022/10/24 02:06:33;;;;;;;6.97;2.00;;;14.50;99.90;;;;;;5028733;28;20052;-58
2022/10/24 02:09:05;;;;;;;9.77;2.22;;;14.30;99.90;;;;;;5027457;28;20041;-59
2022/10/24 02:11:33;;;;;;;9.07;2.40;;;14.40;99.90;;;;;;5026796;28;20049;-59
2022/10/24 02:14:04;;;;;;;7.78;2.05;;;14.50;99.90;;;;;;5026263;28;20038;-59
2022/10/24 02:16:30;;;;;;;10.30;1.90;;;14.40;99.90;;;;;;5030023;28;20041;-59
2022/10/24 02:18:57;;;;;;;7.95;2.10;;;15.50;99.90;;;;;;5027280;28;20041;-59
2022/10/24 02:21:29;;;;;;;6.75;2.33;;;14.60;99.90;;;;;;5029215;28;20045;-59
2022/10/24 02:24:23;;;;;;;7.00;2.92;;;14.40;99.90;;;;;;5024344;28;20060;-59
2022/10/24 02:26:57;;;;;;;6.00;2.42;;;14.40;99.90;;;;;;5025048;28;20084;-59
2022/10/24 02:30:01;;;;;;;7.82;2.17;;;14.60;99.90;;;;;;5027746;28;20476;-59
2022/10/24 02:32:34;;;;;;;14.20;2.85;;;14.60;99.90;;;;;;5028872;28;20613;-59
2022/10/24 02:35:03;;;;;;;7.93;2.08;;;14.70;99.90;;;;;;5027305;28;21042;-59
2022/10/24 02:37:32;;;;;;;8.27;2.53;;;14.50;99.90;;;;;;5029154;28;20045;-59
2022/10/24 02:40:01;;;;;;;8.10;2.30;;;14.60;99.90;;;;;;5026323;28;20197;-58
2022/10/24 02:42:28;;;;;;;7.53;2.22;;;14.60;99.90;;;;;;5027088;28;20410;-59
2022/10/24 02:44:54;;;;;;;9.35;2.50;;;14.50;99.90;;;;;;5025500;28;20037;-58
2022/10/24 02:47:23;;;;;;;8.15;2.25;;;14.40;99.90;;;;;;5028829;28;20100;-59
2022/10/24 02:49:49;;;;;;;6.88;2.35;;;14.50;99.90;;;;;;5027273;28;20140;-59
2022/10/24 02:52:16;;;;;;;12.00;2.10;;;14.60;99.90;;;;;;5028049;28;20037;-58
2022/10/24 02:54:42;;;;;;;10.25;2.40;;;14.50;99.90;;;;;;5027519;28;20049;-58
2022/10/24 02:57:08;;;;;;;9.70;2.15;;;14.50;99.90;;;;;;5026997;28;20037;-59
2022/10/24 02:59:33;;;;;;;10.02;2.35;;;14.50;99.90;;;;;;5028981;28;20040;-58
2022/10/24 03:01:59;;;;;;;13.40;2.45;;;14.60;99.90;;;;;;5025042;28;20466;-59
2022/10/24 03:04:25;;;;;;;8.65;2.13;;;14.60;99.90;;;;;;5031000;28;20045;-58
2022/10/24 03:06:52;;;;;;;6.57;1.92;;;14.50;99.90;;;;;;5028723;28;20148;-59
2022/10/24 03:09:17;;;;;;;9.55;2.03;;;15.90;99.90;;;;;;5027536;28;20041;-59
2022/10/24 03:11:43;;;;;;;8.05;2.03;;;14.70;99.90;;;;;;5029206;28;20212;-58
2022/10/24 03:14:09;;;;;;;6.57;2.08;;;14.70;99.90;;;;;;5027193;28;20279;-57
2022/10/24 03:16:35;;;;;;;6.18;1.95;;;14.50;99.90;;;;;;5023852;28;20048;-59
2022/10/24 03:19:00;;;;;;;7.70;2.22;;;14.80;99.90;;;;;;5026611;28;20040;-59
2022/10/24 03:21:26;;;;;;;6.28;1.88;;;14.80;99.90;;;;;;5026098;28;20255;-58
2022/10/24 03:23:52;;;;;;;11.65;2.03;;;14.70;99.90;;;;;;5024688;28;20068;-58
2022/10/24 03:26:18;;;;;;;6.75;2.05;;;14.60;99.90;;;;;;5024275;28;20057;-58
2022/10/24 03:28:43;;;;;;;7.28;1.63;;;14.70;99.90;;;;;;5026557;28;20045;-59
2022/10/24 03:31:09;;;;;;;9.95;2.17;;;15.00;99.90;;;;;;5026615;28;20046;-58
2022/10/24 03:33:35;;;;;;;11.30;2.10;;;14.60;99.90;;;;;;5024768;28;20036;-59
2022/10/24 03:36:01;;;;;;;10.70;1.80;;;14.70;99.90;;;;;;5029348;28;20037;-58
2022/10/24 03:38:27;;;;;;;9.60;1.55;;;14.60;99.90;;;;;;5022461;28;20040;-59
2022/10/24 03:40:52;;;;;;;7.90;2.65;;;14.80;99.90;;;;;;5026237;28;20773;-59
2022/10/24 03:43:19;;;;;;;9.85;1.95;;;14.70;99.90;;;;;;5026706;28;20128;-59
2022/10/24 03:45:45;;;;;;;9.55;2.22;;;14.90;99.90;;;;;;5027216;28;20466;-60
2022/10/24 03:48:12;;;;;;;12.75;2.42;;;14.70;99.90;;;;;;5027682;28;20056;-60
2022/10/24 03:50:38;;;;;;;8.75;2.15;;;14.90;99.90;;;;;;5027865;28;20447;-59
2022/10/24 03:53:04;;;;;;;9.45;2.15;;;14.70;99.90;;;;;;5027757;28;20083;-59
2022/10/24 03:55:30;;;;;;;11.40;2.03;;;15.00;99.90;;;;;;5027807;28;20041;-59
2022/10/24 03:57:55;;;;;;;8.68;2.28;;;14.80;99.90;;;;;;5027911;28;20041;-59
2022/10/24 04:00:22;;;;;;;10.13;2.08;;;15.00;99.90;;;;;;5024917;28;21470;-59
2022/10/24 04:02:50;;;;;;;9.90;2.47;;;16.30;99.90;;;;;;5023816;28;20053;-60
2022/10/24 04:05:16;;;;;;;10.88;3.22;;;14.80;99.90;;;;;;5022590;28;20402;-59
2022/10/24 04:07:42;;;;;;;6.07;1.70;;;14.90;99.90;;;;;;5027455;28;20032;-60
2022/10/24 04:10:08;;;;;;;8.43;2.47;;;14.90;99.90;;;;;;5024531;28;20148;-59
2022/10/24 04:12:34;;;;;;;9.20;2.00;;;14.80;99.90;;;;;;5025195;28;20215;-59
2022/10/24 04:15:00;;;;;;;8.73;2.25;;;14.70;99.90;;;;;;5028743;28;20538;-59
2022/10/24 04:17:26;;;;;;;9.23;1.98;;;14.80;99.90;;;;;;5022896;28;20038;-60
2022/10/24 04:19:51;;;;;;;8.13;1.67;;;14.90;99.90;;;;;;5029220;28;20037;-59
2022/10/24 04:22:17;;;;;;;10.23;2.00;;;14.90;99.80;;;;;;5025856;28;20597;-59
2022/10/24 04:24:43;;;;;;;8.13;1.80;;;14.70;99.90;;;;;;5024933;28;20079;-59
2022/10/24 04:27:09;;;;;;;10.77;2.00;;;14.70;99.90;;;;;;5025758;28;20468;-60
2022/10/24 04:29:35;;;;;;;8.32;1.98;;;14.50;99.90;;;;;;5025606;28;20037;-59
2022/10/24 04:32:01;;;;;;;8.63;1.92;;;14.60;99.90;;;;;;5026752;28;20044;-61
2022/10/24 04:34:27;;;;;;;9.65;1.88;;;14.60;99.90;;;;;;5027234;28;20041;-60
2022/10/24 04:36:52;;;;;;;7.53;2.15;;;14.50;99.90;;;;;;5022265;28;20045;-60
2022/10/24 04:39:18;;;;;;;6.85;1.83;;;15.60;99.90;;;;;;5019500;28;20041;-60
2022/10/24 04:41:45;;;;;;;6.88;2.13;;;14.30;99.90;;;;;;5023390;28;20120;-60
2022/10/24 04:44:11;;;;;;;11.23;2.13;;;15.30;99.90;;;;;;5026637;28;20037;-61
2022/10/24 04:46:36;;;;;;;9.70;2.10;;;16.20;99.90;;;;;;5028722;28;20075;-59
2022/10/24 04:49:02;;;;;;;6.80;1.60;;;14.30;99.90;;;;;;5028048;28;20108;-59
2022/10/24 04:51:28;;;;;;;7.13;1.63;;;14.30;99.90;;;;;;5026369;28;20041;-60
2022/10/24 04:53:54;;;;;;;8.60;1.90;;;14.30;99.90;;;;;;5022139;28;20048;-60
2022/10/24 04:56:20;;;;;;;10.73;1.95;;;14.20;99.90;;;;;;5016855;28;20507;-60
2022/10/24 04:58:45;;;;;;;7.97;1.92;;;14.40;99.90;;;;;;5022402;28;20049;-59
2022/10/24 05:01:11;;;;;;;6.82;1.50;;;14.30;99.90;;;;;;5026167;28;20040;-60
2022/10/24 05:03:37;;;;;;;5.68;1.92;;;14.40;99.90;;;;;;5026566;28;20040;-60
2022/10/24 05:06:03;;;;;;;11.30;2.40;;;14.30;99.40;;;;;;5029868;28;20040;-60
2022/10/24 05:08:28;;;;;;;7.78;2.08;;;14.40;99.90;;;;;;5024430;28;20731;-60
2022/10/24 05:10:54;;;;;;;10.63;2.45;;;14.40;99.80;;;;;;5020116;28;20101;-60
2022/10/24 05:13:20;;;;;;;6.70;1.60;;;14.30;99.60;;;;;;5025186;28;20042;-59
2022/10/24 05:15:46;;;;;;;5.65;1.95;;;15.20;99.90;;;;;;5023821;28;20555;-60
2022/10/24 05:18:11;;;;;;;13.48;1.90;;;14.20;99.80;;;;;;5025171;28;20434;-60
2022/10/24 05:20:37;;;;;;;10.70;1.88;;;14.30;99.60;;;;;;5024395;28;20124;-60
2022/10/24 05:23:03;;;;;;;8.45;2.20;;;14.20;99.30;;;;;;5022001;28;20114;-60
2022/10/24 05:25:29;;;;;;;10.15;1.67;;;14.20;99.20;;;;;;5025931;28;20044;-60
2022/10/24 05:27:55;;;;;;;7.22;1.88;;;14.30;98.80;;;;;;5021675;28;20044;-60
2022/10/24 05:30:20;;;;;;;10.35;1.98;;;14.10;98.60;;;;;;5026311;28;20053;-61
2022/10/24 05:32:46;;;;;;;10.63;2.03;;;14.40;99.60;;;;;;5027519;28;20048;-59
2022/10/24 05:35:12;;;;;;;7.50;1.40;;;14.10;99.20;;;;;;5026041;28;20037;-60
2022/10/24 05:37:38;;;;;;;9.15;2.70;;;14.10;99.80;;;;;;5024997;28;20052;-58
2022/10/24 05:40:06;;;;;;;12.48;2.63;;;14.20;98.50;;;;;;5023656;28;21114;-57
2022/10/24 05:42:32;;;;;;;10.55;2.03;;;14.10;98.00;;;;;;5023058;28;20044;-57
2022/10/24 05:44:58;;;;;;;11.65;1.50;;;13.30;97.70;;;;;;5023949;28;20041;-57
2022/10/24 05:47:23;;;;;;;5.13;1.63;;;14.20;97.70;;;;;;5027203;28;20073;-57
2022/10/24 05:49:49;;;;;;;10.65;1.60;;;14.20;97.20;;;;;;5023746;28;20037;-56
2022/10/24 05:52:15;;;;;;;11.95;1.70;;;14.30;95.90;;;;;;5027173;28;20578;-56
2022/10/24 05:54:40;;;;;;;11.07;2.28;;;14.20;94.60;;;;;;5027294;28;20096;-56
2022/10/24 05:57:06;;;;;;;5.97;1.48;;;14.30;94.00;;;;;;5023897;28;20034;-56
2022/10/24 05:59:32;;;;;;;11.80;1.80;;;14.50;93.50;;;;;;5027820;28;20037;-57
2022/10/24 06:01:58;;;;;;;10.35;1.50;;;14.20;91.90;;;;;;5022806;28;20380;-57
2022/10/24 06:04:24;;;;;;;7.50;1.50;;;14.40;91.50;;;;;;5024814;28;20076;-57
2022/10/24 06:06:49;;;;;;;8.18;1.40;;;14.50;90.10;;;;;;5024801;28;20041;-57
2022/10/24 06:09:15;;;;;;;9.68;1.70;;;14.30;91.80;;;;;;5023383;28;20037;-56
2022/10/24 06:11:41;;;;;;;5.63;1.10;;;14.30;90.50;;;;;;5026010;28;20044;-57
2022/10/24 06:14:07;;;;;;;8.23;1.60;;;14.40;90.20;;;;;;5023956;28;20563;-56
2022/10/24 06:16:33;;;;;;;5.82;1.63;;;14.30;91.20;;;;;;5027074;28;20043;-56
2022/10/24 06:18:59;;;;;;;9.88;1.60;;;15.80;93.50;;;;;;5024647;28;20049;-57
2022/10/24 06:21:25;;;;;;;8.27;1.63;;;13.80;92.40;;;;;;5023261;28;20094;-56
2022/10/24 06:23:51;;;;;;;6.65;1.40;;;14.10;91.90;;;;;;5022616;28;20101;-56
2022/10/24 06:26:17;;;;;;;6.25;1.58;;;15.70;92.70;;;;;;5022460;28;20049;-57
2022/10/24 06:28:43;;;;;;;11.52;1.50;;;14.30;92.70;;;;;;5024480;28;20306;-57
2022/10/24 06:31:11;;;;;;;8.57;1.52;;;14.00;92.90;;;;;;5025148;28;20037;-57
2022/10/24 06:33:37;;;;;;;12.70;1.48;;;14.20;92.90;;;;;;5020532;28;20044;-57
2022/10/24 06:36:05;;;;;;;10.85;1.40;;;12.80;93.80;;;;;;5025464;28;20060;-56
2022/10/24 06:38:32;;;;;;;10.10;1.58;;;14.10;93.20;;;;;;5023086;28;20464;-57
2022/10/24 06:40:58;;;;;;;7.00;1.27;;;14.10;93.10;;;;;;5023024;28;20073;-57
2022/10/24 06:43:23;;;;;;;10.18;1.65;;;14.30;91.60;;;;;;5024034;28;21852;-56
2022/10/24 06:45:49;;;;;;;7.57;1.33;;;14.30;92.80;;;;;;5021194;28;20055;-57
2022/10/24 06:48:15;;;;;;;11.55;1.63;;;14.30;91.70;;;;;;5021226;28;20049;-57
2022/10/24 06:50:42;;;;;;;7.70;1.27;;;14.40;91.90;;;;;;5021840;28;20319;-57
2022/10/24 06:53:09;;;;;;;13.63;1.90;;;14.60;90.30;;;;;;5026023;28;20037;-57
2022/10/24 06:55:38;;;;;;;10.05;1.55;;;14.50;90.20;;;;;;5028174;28;20059;-57
2022/10/24 06:58:05;;;;;;;8.60;1.80;;;14.50;87.30;;;;;;5026721;28;20045;-57
2022/10/24 07:00:36;;;;;;;7.38;1.50;;;14.50;87.20;;;;;;5025079;28;20042;-57
2022/10/24 07:03:01;;;;;;;10.40;1.40;;;14.70;86.90;;;;;;5029297;28;20056;-61
2022/10/24 07:05:27;;;;;;;8.57;1.40;;;14.70;88.70;;;;;;5024341;28;20240;-61
2022/10/24 07:07:53;;;;;;;10.23;1.75;;;14.70;88.50;;;;;;5029588;28;20085;-60
2022/10/24 07:10:19;;;;;;;9.07;1.60;;;14.70;86.10;;;;;;5023511;28;20044;-61
2022/10/24 07:12:44;;;;;;;6.30;1.40;;;14.80;83.90;;;;;;5025063;28;20119;-62
2022/10/24 07:15:10;;;;;;;6.90;1.52;;;14.60;85.40;;;;;;5024038;28;20037;-61
2022/10/24 07:17:44;;;;;;;12.07;1.52;;;14.60;87.50;;;;;;5024443;28;20508;-61
2022/10/24 07:20:11;;;;;;;7.97;1.92;;;14.70;81.50;;;;;;5028953;28;20037;-61
2022/10/24 07:22:37;;;;;;;8.75;1.52;;;15.00;82.70;;;;;;5026107;28;20048;-60
2022/10/24 07:25:04;;;;;;;8.50;1.40;;;14.80;85.90;;;;;;5028096;28;20100;-61
2022/10/24 07:27:30;;;;;;;10.88;1.98;;;15.40;76.80;;;;;;5026188;28;20059;-61
2022/10/24 07:29:56;;;;;;;12.68;2.08;;;15.90;57.00;;;;;;5027205;28;20033;-61
2022/10/24 07:32:22;;;;;;;5.65;1.40;;;16.10;50.30;;;;;;5025214;28;20048;-62
2022/10/24 07:34:48;;;;;;;7.35;1.08;;;15.90;43.80;;;;;;5027894;28;20049;-60
2022/10/24 07:37:15;;;;;;;6.63;1.40;;;16.00;41.80;;;;;;5029289;28;20043;-61
2022/10/24 07:39:41;;;;;;;9.65;1.48;;;15.80;39.70;;;;;;5029233;28;20041;-61
2022/10/24 07:42:07;;;;;;;10.77;1.25;;;15.90;36.00;;;;;;5025573;28;20041;-61
2022/10/24 07:44:33;;;;;;;8.82;1.45;;;15.80;42.10;;;;;;5031757;28;20045;-61
2022/10/24 07:47:00;;;;;;;6.15;1.20;;;15.80;34.10;;;;;;5027354;28;20060;-61
2022/10/24 07:49:25;;;;;;;7.28;1.58;;;17.90;33.30;;;;;;5025985;28;20081;-61
2022/10/24 07:51:51;;;;;;;11.45;1.50;;;16.00;33.50;;;;;;5024963;28;20579;-61
2022/10/24 07:54:16;;;;;;;10.65;1.50;;;16.00;40.50;;;;;;5027039;28;20041;-61
2022/10/24 07:56:42;;;;;;;7.63;1.48;;;15.80;36.70;;;;;;5025117;28;20048;-61
2022/10/24 07:59:08;;;;;;;10.10;2.50;;;15.70;39.40;;;;;;5026639;28;20540;-61
2022/10/24 08:01:34;;;;;;;5.95;1.17;;;15.70;39.50;;;;;;5027202;28;20029;-61
2022/10/24 08:03:59;;;;;;;9.43;1.35;;;15.60;39.70;;;;;;5024191;28;20044;-61
2022/10/24 08:06:29;;;;;;;8.70;1.55;;;15.80;42.70;;;;;;5029853;28;20072;-60
2022/10/24 08:08:55;;;;;;;10.65;1.70;;;15.60;49.90;;;;;;5026039;28;20037;-61
2022/10/24 08:11:23;;;;;;;7.13;1.77;;;15.90;50.20;;;;;;5027257;28;20448;-60
2022/10/24 08:13:51;;;;;;;8.48;1.60;;;15.90;45.30;;;;;;5025549;28;20064;-61
2022/10/24 08:16:19;;;;;;;10.68;1.60;;;15.90;40.00;;;;;;5025193;28;20045;-61
2022/10/24 08:18:46;;;;;;;8.57;1.17;;;15.70;40.80;;;;;;5026932;28;20033;-61
2022/10/24 08:21:14;;;;;;;12.32;1.73;;;15.90;42.80;;;;;;5025160;28;20041;-61
2022/10/24 08:23:42;;;;;;;6.68;1.73;;;15.60;31.80;;;;;;5023369;28;22520;-61
2022/10/24 08:26:10;;;;;;;9.00;1.92;;;15.60;39.10;;;;;;5027040;28;20049;-62
2022/10/24 08:28:36;;;;;;;7.05;1.70;;;15.60;39.60;;;;;;5028041;28;20063;-60
2022/10/24 08:31:09;;;;;;;9.50;2.30;;;15.60;42.00;;;;;;5025270;28;20462;-61
2022/10/24 08:33:35;;;;;;;10.82;1.30;;;16.00;50.60;;;;;;5027383;28;20102;-61
2022/10/24 08:36:05;;;;;;;7.18;1.63;;;15.70;52.20;;;;;;5024617;28;20049;-60
2022/10/24 08:38:31;;;;;;;8.25;1.83;;;15.90;57.70;;;;;;5028538;28;20072;-61
2022/10/24 08:40:57;;;;;;;9.65;1.13;;;15.90;50.00;;;;;;5026649;28;20538;-62
2022/10/24 08:43:23;;;;;;;7.93;1.60;;;16.00;48.40;;;;;;5023600;28;20559;-61
2022/10/24 08:46:00;;;;;;;10.63;1.85;;;16.00;54.50;;;;;;5026776;28;20068;-61
2022/10/24 08:48:31;;;;;;;9.63;2.00;;;16.10;54.30;;;;;;5025690;28;20045;-61
2022/10/24 08:51:20;;;;;;;12.35;1.70;;;15.90;51.60;;;;;;5026082;28;20064;-61
2022/10/24 08:53:47;;;;;;;11.10;1.90;;;15.90;41.90;;;;;;5021235;28;20402;-61
2022/10/24 08:56:12;;;;;;;10.25;1.35;;;16.00;47.60;;;;;;5010532;28;20101;-61
2022/10/24 08:58:43;;;;;;;8.65;1.38;;;16.10;49.60;;;;;;5025012;28;20033;-60
2022/10/24 09:01:18;;;;;;;8.25;1.20;;;16.10;53.50;;;;;;5025944;28;20048;-59
2022/10/24 09:03:49;;;;;;;10.57;2.05;;;16.00;49.20;;;;;;5022369;28;20301;-66
2022/10/24 09:06:20;;;;;;;8.13;1.35;;;16.00;50.30;;;;;;5021959;28;20045;-64
2022/10/24 09:08:53;;;;;;;9.73;1.58;;;15.90;55.80;;;;;;5023045;28;20610;-64
2022/10/24 09:11:50;;;;;;;9.93;1.38;;;15.80;60.70;;;;;;5023989;28;20052;-63
2022/10/24 09:14:26;;;;;;;9.55;1.20;;;16.00;64.20;;;;;;5024253;28;20183;-62
2022/10/24 09:17:09;;;;;;;10.05;1.60;;;16.10;54.30;;;;;;5025665;28;20041;-62
2022/10/24 09:19:34;;;;;;;9.40;1.83;;;16.40;55.50;;;;;;5025917;28;20056;-63
2022/10/24 09:22:01;;;;;;;6.35;1.45;;;16.50;45.70;;;;;;5024019;28;20041;-61
2022/10/24 09:24:44;;;;;;;11.07;1.55;;;18.60;39.10;;;;;;5019626;28;20048;-64
2022/10/24 09:27:20;;;;;;;9.77;1.75;;;16.60;44.20;;;;;;5024634;28;20052;-64
2022/10/24 09:29:46;;;;;;;16.73;1.90;;;16.70;47.90;;;;;;5008955;28;20842;-65
2022/10/24 09:32:25;;;;;;;4.97;1.17;;;16.60;39.40;;;;;;5025363;28;20053;-65
2022/10/24 09:34:52;;;;;;;12.05;2.13;;;16.80;40.50;;;;;;5022209;28;20045;-65
2022/10/24 09:37:41;;;;;;;7.28;1.67;;;16.70;38.00;;;;;;5022842;28;20043;-65
2022/10/24 09:40:30;;;;;;;12.57;2.08;;;16.80;32.70;;;;;;5021677;28;20132;-64
2022/10/24 09:42:56;;;;;;;6.28;1.58;;;16.80;35.60;;;;;;5022296;28;20053;-64
2022/10/24 09:45:29;;;;;;;9.43;1.83;;;16.60;41.00;;;;;;5020954;28;20511;-64
2022/10/24 09:48:25;;;;;;;7.75;1.50;;;16.70;36.20;;;;;;5026450;28;20464;-63
2022/10/24 09:50:53;;;;;;;6.55;1.23;;;16.60;29.70;;;;;;4992695;28;20061;-64
2022/10/24 09:53:27;;;;;;;7.15;1.30;;;16.50;38.70;;;;;;5023282;28;20080;-64
2022/10/24 09:56:00;;;;;;;6.85;1.33;;;16.40;40.30;;;;;;5023412;28;20720;-64
2022/10/24 09:58:31;;;;;;;15.65;1.65;;;16.20;43.20;;;;;;5026004;28;20049;-64
2022/10/24 10:01:01;;;;;;;11.57;1.63;;;16.10;52.30;;;;;;5024549;28;20060;-65
2022/10/24 10:03:27;;;;;;;5.95;1.20;;;16.10;54.40;;;;;;5024924;28;20132;-64
2022/10/24 10:05:55;;;;;;;10.68;2.40;;;15.90;54.40;;;;;;5023872;28;20128;-64
2022/10/24 10:08:25;;;;;;;9.85;1.33;;;15.90;52.80;;;;;;5026745;28;20406;-66
2022/10/24 10:11:11;;;;;;;9.43;1.40;;;15.80;52.20;;;;;;5024443;28;20069;-64
2022/10/24 10:13:49;;;;;;;7.10;1.38;;;16.00;55.00;;;;;;5022568;28;20041;-64
2022/10/24 10:16:38;;;;;;;8.88;1.40;;;16.00;45.50;;;;;;5021530;28;20053;-64
2022/10/24 10:19:16;;;;;;;9.25;1.95;;;15.90;50.50;;;;;;5018822;28;20049;-65
2022/10/24 10:22:01;;;;;;;10.82;2.17;;;15.70;30.60;;;;;;5022656;28;20945;-64
2022/10/24 10:24:42;;;;;;;7.65;1.40;;;15.90;39.80;;;;;;5022674;28;20127;-66
2022/10/24 10:27:32;;;;;;;11.57;1.92;;;15.60;53.00;;;;;;5026541;28;20045;-65
2022/10/24 10:30:13;;;;;;;8.10;1.38;;;15.50;82.50;;;;;;5024949;28;20037;-65
2022/10/24 10:32:39;;;;;;;8.02;1.73;;;15.40;91.10;;;;;;5025297;28;20049;-63
2022/10/24 10:35:41;;;;;;;8.98;1.60;;;15.40;95.50;;;;;;5026917;28;20052;-63
2022/10/24 10:38:37;;;;;;;11.52;1.60;;;15.10;95.70;;;;;;5025635;28;20097;-62
2022/10/24 10:41:26;;;;;;;11.02;1.67;;;15.10;97.40;;;;;;5023543;28;20619;-63
2022/10/24 10:44:04;;;;;;;12.10;1.67;;;15.00;99.80;;;;;;4996749;28;20108;-61
2022/10/24 10:46:57;;;;;;;9.13;1.58;;;14.80;99.90;;;;;;5025980;28;20049;-63
2022/10/24 10:49:38;;;;;;;10.25;1.77;;;14.60;99.90;;;;;;5024394;28;20041;-64
2022/10/24 10:52:10;;;;;;;14.73;2.17;;;14.90;99.90;;;;;;5027207;28;20155;-63
2022/10/24 10:54:45;;;;;;;9.27;1.90;;;14.80;99.90;;;;;;5029175;28;20660;-64
2022/10/24 10:57:49;;;;;;;11.95;1.90;;;15.20;99.90;;;;;;5024450;28;20049;-63
2022/10/24 11:00:30;;;;;;;5.85;1.30;;;15.10;99.90;;;;;;5025222;28;20127;-63
2022/10/24 11:03:34;;;;;;;11.38;1.70;;;15.40;94.70;;;;;;5027769;28;20037;-63
2022/10/24 11:06:21;;;;;;;8.15;1.40;;;15.80;84.20;;;;;;5032136;28;20056;-63
2022/10/24 11:09:25;;;;;;;8.77;1.70;;;15.60;72.70;;;;;;5026743;28;20094;-63
2022/10/24 11:12:15;;;;;;;7.47;1.20;;;15.80;51.00;;;;;;5031253;28;21030;-64
2022/10/24 11:14:42;;;;;;;8.43;1.40;;;15.90;63.90;;;;;;5027411;28;20057;-63
2022/10/24 11:17:46;;;;;;;7.50;1.38;;;15.80;63.00;;;;;;5026562;28;20053;-64
2022/10/24 11:20:12;;;;;;;11.27;1.67;;;15.70;55.10;;;;;;5023665;28;20689;-63
2022/10/24 11:22:44;;;;;;;11.32;1.67;;;15.80;62.00;;;;;;5024165;28;20034;-63
2022/10/24 11:25:32;;;;;;;9.95;1.73;;;15.80;67.80;;;;;;5025767;28;20076;-64
2022/10/24 11:28:34;;;;;;;11.63;1.75;;;15.90;64.00;;;;;;5023834;28;20045;-64
2022/10/24 11:31:04;;;;;;;13.57;3.30;;;15.80;69.20;;;;;;5027242;28;20044;-65
2022/10/24 11:33:46;;;;;;;8.48;1.60;;;15.80;64.40;;;;;;5026587;28;20041;-64
2022/10/24 11:36:35;;;;;;;11.85;1.50;;;15.70;62.70;;;;;;5027213;28;20044;-65
2022/10/24 11:39:05;;;;;;;12.18;1.63;;;15.60;60.60;;;;;;5024754;28;20045;-64
2022/10/24 11:41:45;;;;;;;7.63;1.40;;;15.30;68.30;;;;;;5022640;28;20829;-65
2022/10/24 11:44:25;;;;;;;12.80;1.67;;;15.40;77.80;;;;;;5023339;28;20045;-65
2022/10/24 11:47:30;;;;;;;7.90;1.65;;;15.30;78.40;;;;;;5024102;28;20498;-65
2022/10/24 11:50:33;;;;;;;8.80;1.40;;;15.60;77.70;;;;;;5026314;28;20061;-65
2022/10/24 11:53:10;;;;;;;13.32;1.98;;;15.60;84.80;;;;;;5023095;28;20041;-62
2022/10/24 11:55:40;;;;;;;10.00;2.40;;;15.50;75.40;;;;;;5025826;28;20056;-62
2022/10/24 11:58:12;;;;;;;7.13;1.83;;;15.50;82.60;;;;;;5026361;28;20041;-63
2022/10/24 12:00:52;;;;;;;9.75;1.83;;;15.60;79.90;;;;;;5022976;28;20037;-63
2022/10/24 12:03:39;;;;;;;8.07;1.38;;;15.70;76.40;;;;;;5026036;28;20043;-64
2022/10/24 12:06:21;;;;;;;9.20;1.50;;;15.60;63.00;;;;;;5027559;28;20037;-63
2022/10/24 12:08:55;;;;;;;12.43;1.65;;;15.80;66.60;;;;;;5021435;28;22392;-65
2022/10/24 12:11:49;;;;;;;12.73;1.88;;;16.40;53.50;;;;;;5023237;28;20076;-65
2022/10/24 12:14:33;;;;;;;13.57;2.58;;;15.80;54.70;;;;;;5000847;28;20421;-64
2022/10/24 12:17:43;;;;;;;7.45;1.67;;;15.90;63.30;;;;;;5024417;28;20506;-63
2022/10/24 12:20:20;;;;;;;11.18;2.00;;;16.20;42.00;;;;;;5017998;28;20054;-63
2022/10/24 12:22:47;;;;;;;9.65;1.48;;;16.10;40.60;;;;;;5019450;28;20121;-64
2022/10/24 12:25:21;;;;;;;8.40;1.83;;;16.00;45.60;;;;;;5024407;28;20041;-63
2022/10/24 12:27:54;;;;;;;8.25;1.77;;;16.00;43.40;;;;;;5027283;28;20443;-65
2022/10/24 12:30:23;;;;;;;8.55;1.30;;;16.00;41.60;;;;;;5023252;28;20128;-64
2022/10/24 12:33:05;;;;;;;9.55;1.40;;;15.80;48.70;;;;;;5027698;28;20459;-63
2022/10/24 12:35:46;;;;;;;6.20;1.17;;;15.70;56.80;;;;;;5024434;28;20715;-64
2022/10/24 12:38:38;;;;;;;10.27;1.40;;;15.70;65.60;;;;;;5026937;28;20037;-64
2022/10/24 12:41:32;;;;;;;7.47;1.20;;;15.80;58.30;;;;;;5023546;28;20056;-65
2022/10/24 12:44:32;;;;;;;11.52;2.13;;;15.90;29.60;;;;;;5024883;28;20057;-62
2022/10/24 12:46:58;;;;;;;12.60;1.40;;;17.30;23.60;;;;;;5021675;28;20195;-64
2022/10/24 12:49:31;;;;;;;8.07;1.23;;;16.20;36.10;;;;;;5023658;28;20281;-63
2022/10/24 12:51:58;;;;;;;6.10;1.25;;;16.00;27.80;;;;;;5024146;28;20503;-63
2022/10/24 12:54:53;;;;;;;6.82;1.33;;;16.10;24.80;;;;;;5023207;28;20041;-62
2022/10/24 12:57:35;;;;;;;10.50;2.00;;;16.10;35.50;;;;;;5012985;28;20699;-62
2022/10/24 13:00:20;;;;;;;8.88;1.45;;;16.10;46.40;;;;;;5025901;28;20051;-66
2022/10/24 13:03:18;;;;;;;7.32;1.77;;;16.20;35.60;;;;;;5023460;28;20048;-66
2022/10/24 13:06:03;;;;;;;6.60;1.20;;;16.10;26.90;;;;;;5020715;28;20041;-67
2022/10/24 13:08:40;;;;;;;7.18;1.15;;;16.20;26.00;;;;;;5022793;28;20363;-67